sensor_id;sensor_type;location;lat;lon;timestamp;pressure;altitude;pressure_sealevel;temperature;humidity
41044;BME280;51680;49.806;18.774;2023-02-02T00:03:00;96647.41;;;3.85;86.98
41044;BME280;51680;49.806;18.774;2023-02-02T00:06:02;96646.59;;;3.84;85.90
41044;BME280;51680;49.806;18.774;2023-02-02T00:09:04;96641.25;;;3.87;85.51
41044;BME280;51680;49.806;18.774;2023-02-02T00:12:06;96646.13;;;3.93;85.26
41044;BME280;51680;49.806;18.774;2023-02-02T00:15:09;96639.88;;;3.97;85.63
41044;BME280;51680;49.806;18.774;2023-02-02T00:18:11;96644.44;;;4.09;85.33
41044;BME280;51680;49.806;18.774;2023-02-02T00:21:13;96643.13;;;4.18;84.70
41044;BME280;51680;49.806;18.774;2023-02-02T00:24:16;96641.84;;;4.26;84.53
41044;BME280;51680;49.806;18.774;2023-02-02T00:27:18;96643.50;;;4.27;84.66
41044;BME280;51680;49.806;18.774;2023-02-02T00:30:21;96643.03;;;4.36;84.51
41044;BME280;51680;49.806;18.774;2023-02-02T00:33:23;96646.63;;;4.34;84.74
41044;BME280;51680;49.806;18.774;2023-02-02T00:36:25;96655.03;;;4.37;84.06
41044;BME280;51680;49.806;18.774;2023-02-02T00:39:27;96651.41;;;4.41;84.28
41044;BME280;51680;49.806;18.774;2023-02-02T00:42:29;96648.03;;;4.39;84.51
41044;BME280;51680;49.806;18.774;2023-02-02T00:45:32;96659.22;;;4.40;84.16
41044;BME280;51680;49.806;18.774;2023-02-02T00:48:33;96656.25;;;4.30;84.39
41044;BME280;51680;49.806;18.774;2023-02-02T00:51:36;96660.00;;;4.25;84.55
41044;BME280;51680;49.806;18.774;2023-02-02T00:54:37;96659.31;;;4.21;85.16
41044;BME280;51680;49.806;18.774;2023-02-02T00:57:39;96667.97;;;4.20;85.08
41044;BME280;51680;49.806;18.774;2023-02-02T01:00:44;96676.63;;;4.19;85.31
41044;BME280;51680;49.806;18.774;2023-02-02T01:03:47;96670.47;;;4.22;84.85
41044;BME280;51680;49.806;18.774;2023-02-02T01:06:49;96669.81;;;4.18;85.25
41044;BME280;51680;49.806;18.774;2023-02-02T01:09:51;96676.09;;;4.13;85.00
41044;BME280;51680;49.806;18.774;2023-02-02T01:12:53;96675.28;;;4.12;85.04
41044;BME280;51680;49.806;18.774;2023-02-02T01:15:56;96676.94;;;4.13;85.30
41044;BME280;51680;49.806;18.774;2023-02-02T01:18:59;96677.25;;;4.07;85.62
41044;BME280;51680;49.806;18.774;2023-02-02T01:22:02;96678.16;;;4.06;85.61
41044;BME280;51680;49.806;18.774;2023-02-02T01:25:04;96685.00;;;4.07;85.69
41044;BME280;51680;49.806;18.774;2023-02-02T01:28:25;96686.81;;;4.05;85.63
41044;BME280;51680;49.806;18.774;2023-02-02T01:31:29;96686.88;;;4.04;85.68
41044;BME280;51680;49.806;18.774;2023-02-02T01:34:31;96687.34;;;3.95;86.37
41044;BME280;51680;49.806;18.774;2023-02-02T01:37:32;96683.34;;;3.89;86.33
41044;BME280;51680;49.806;18.774;2023-02-02T01:40:34;96686.97;;;3.85;86.25
41044;BME280;51680;49.806;18.774;2023-02-02T01:43:51;96691.28;;;3.85;86.85
41044;BME280;51680;49.806;18.774;2023-02-02T01:46:55;96693.19;;;3.81;86.94
41044;BME280;51680;49.806;18.774;2023-02-02T01:49:57;96689.41;;;3.88;86.46
41044;BME280;51680;49.806;18.774;2023-02-02T01:53:01;96695.00;;;3.96;86.04
41044;BME280;51680;49.806;18.774;2023-02-02T01:56:06;96694.09;;;3.97;85.77
41044;BME280;51680;49.806;18.774;2023-02-02T01:59:09;96696.53;;;4.00;86.02
41044;BME280;51680;49.806;18.774;2023-02-02T02:02:12;96703.22;;;4.04;86.00
41044;BME280;51680;49.806;18.774;2023-02-02T02:05:18;96710.06;;;4.05;85.84
41044;BME280;51680;49.806;18.774;2023-02-02T02:08:27;96705.44;;;4.12;85.71
41044;BME280;51680;49.806;18.774;2023-02-02T02:11:31;96707.75;;;4.16;84.78
41044;BME280;51680;49.806;18.774;2023-02-02T02:14:33;96710.34;;;4.16;85.37
41044;BME280;51680;49.806;18.774;2023-02-02T02:18:01;96707.94;;;4.13;84.86
41044;BME280;51680;49.806;18.774;2023-02-02T02:21:34;96704.75;;;4.08;85.40
41044;BME280;51680;49.806;18.774;2023-02-02T02:25:24;96715.81;;;4.10;85.47
41044;BME280;51680;49.806;18.774;2023-02-02T02:29:02;96718.56;;;4.07;85.51
41044;BME280;51680;49.806;18.774;2023-02-02T02:32:21;96717.59;;;4.10;84.89
41044;BME280;51680;49.806;18.774;2023-02-02T02:35:30;96721.97;;;4.08;84.84
41044;BME280;51680;49.806;18.774;2023-02-02T02:38:36;96728.91;;;4.07;85.12
41044;BME280;51680;49.806;18.774;2023-02-02T02:41:44;96727.97;;;4.08;84.58
41044;BME280;51680;49.806;18.774;2023-02-02T02:44:48;96719.25;;;4.11;84.54
41044;BME280;51680;49.806;18.774;2023-02-02T02:47:52;96720.06;;;4.11;84.68
41044;BME280;51680;49.806;18.774;2023-02-02T02:51:04;96716.44;;;4.15;84.86
41044;BME280;51680;49.806;18.774;2023-02-02T02:54:07;96719.94;;;4.14;84.74
41044;BME280;51680;49.806;18.774;2023-02-02T02:57:21;96718.78;;;4.03;84.51
41044;BME280;51680;49.806;18.774;2023-02-02T03:00:50;96728.13;;;4.05;84.34
41044;BME280;51680;49.806;18.774;2023-02-02T03:04:06;96725.72;;;4.02;84.97
41044;BME280;51680;49.806;18.774;2023-02-02T03:07:16;96732.09;;;4.12;84.34
41044;BME280;51680;49.806;18.774;2023-02-02T03:10:24;96728.53;;;4.15;84.06
41044;BME280;51680;49.806;18.774;2023-02-02T03:13:29;96733.31;;;4.22;83.96
41044;BME280;51680;49.806;18.774;2023-02-02T03:16:32;96738.63;;;4.19;84.08
41044;BME280;51680;49.806;18.774;2023-02-02T03:19:35;96734.28;;;4.20;83.72
41044;BME280;51680;49.806;18.774;2023-02-02T03:22:36;96740.00;;;4.26;83.87
41044;BME280;51680;49.806;18.774;2023-02-02T03:25:38;96738.91;;;4.30;83.27
41044;BME280;51680;49.806;18.774;2023-02-02T03:28:40;96746.38;;;4.36;83.55
41044;BME280;51680;49.806;18.774;2023-02-02T03:31:42;96742.69;;;4.40;83.41
41044;BME280;51680;49.806;18.774;2023-02-02T03:34:45;96742.41;;;4.46;83.23
41044;BME280;51680;49.806;18.774;2023-02-02T03:37:47;96744.41;;;4.41;83.23
41044;BME280;51680;49.806;18.774;2023-02-02T03:40:50;96749.38;;;4.44;82.82
41044;BME280;51680;49.806;18.774;2023-02-02T03:43:51;96750.63;;;4.37;83.10
41044;BME280;51680;49.806;18.774;2023-02-02T03:46:53;96744.00;;;4.32;83.48
41044;BME280;51680;49.806;18.774;2023-02-02T03:49:56;96739.69;;;4.32;83.32
41044;BME280;51680;49.806;18.774;2023-02-02T03:52:58;96747.25;;;4.35;83.09
41044;BME280;51680;49.806;18.774;2023-02-02T03:56:00;96743.63;;;4.39;83.26
41044;BME280;51680;49.806;18.774;2023-02-02T03:59:20;96740.22;;;4.39;83.63
41044;BME280;51680;49.806;18.774;2023-02-02T04:02:22;96741.28;;;4.35;83.42
41044;BME280;51680;49.806;18.774;2023-02-02T04:05:25;96743.78;;;4.36;83.14
41044;BME280;51680;49.806;18.774;2023-02-02T04:08:27;96743.88;;;4.35;83.31
41044;BME280;51680;49.806;18.774;2023-02-02T04:11:29;96738.69;;;4.35;83.13
41044;BME280;51680;49.806;18.774;2023-02-02T04:14:31;96742.19;;;4.34;82.83
41044;BME280;51680;49.806;18.774;2023-02-02T04:17:33;96752.59;;;4.32;83.21
41044;BME280;51680;49.806;18.774;2023-02-02T04:20:36;96743.19;;;4.31;82.93
41044;BME280;51680;49.806;18.774;2023-02-02T04:23:38;96746.44;;;4.35;82.70
41044;BME280;51680;49.806;18.774;2023-02-02T04:26:40;96747.44;;;4.32;83.09
41044;BME280;51680;49.806;18.774;2023-02-02T04:29:42;96739.00;;;4.29;83.33
41044;BME280;51680;49.806;18.774;2023-02-02T04:32:43;96749.78;;;4.37;83.05
41044;BME280;51680;49.806;18.774;2023-02-02T04:35:46;96746.03;;;4.25;82.77
41044;BME280;51680;49.806;18.774;2023-02-02T04:38:48;96736.50;;;4.27;82.92
41044;BME280;51680;49.806;18.774;2023-02-02T04:41:51;96733.06;;;4.27;82.81
41044;BME280;51680;49.806;18.774;2023-02-02T04:44:52;96739.00;;;4.29;82.75
41044;BME280;51680;49.806;18.774;2023-02-02T04:47:54;96730.47;;;4.27;82.95
41044;BME280;51680;49.806;18.774;2023-02-02T04:51:00;96720.31;;;4.24;83.25
41044;BME280;51680;49.806;18.774;2023-02-02T04:54:03;96719.25;;;4.11;82.98
41044;BME280;51680;49.806;18.774;2023-02-02T04:57:04;96720.38;;;4.05;83.55
41044;BME280;51680;49.806;18.774;2023-02-02T05:00:07;96727.38;;;4.03;83.48
41044;BME280;51680;49.806;18.774;2023-02-02T05:03:10;96729.72;;;4.08;83.46
41044;BME280;51680;49.806;18.774;2023-02-02T05:06:13;96727.00;;;4.11;83.42
41044;BME280;51680;49.806;18.774;2023-02-02T05:09:15;96735.41;;;4.14;83.04
41044;BME280;51680;49.806;18.774;2023-02-02T05:12:17;96737.25;;;4.12;83.32
41044;BME280;51680;49.806;18.774;2023-02-02T05:15:19;96730.41;;;4.11;83.23
41044;BME280;51680;49.806;18.774;2023-02-02T05:18:21;96738.16;;;4.11;83.21
41044;BME280;51680;49.806;18.774;2023-02-02T05:21:26;96727.81;;;4.11;82.81
41044;BME280;51680;49.806;18.774;2023-02-02T05:24:28;96735.28;;;4.17;83.03
41044;BME280;51680;49.806;18.774;2023-02-02T05:27:29;96738.47;;;4.22;82.92
41044;BME280;51680;49.806;18.774;2023-02-02T05:30:50;96737.69;;;4.20;82.24
41044;BME280;51680;49.806;18.774;2023-02-02T05:33:52;96737.09;;;4.15;82.27
41044;BME280;51680;49.806;18.774;2023-02-02T05:36:55;96730.25;;;4.14;82.46
41044;BME280;51680;49.806;18.774;2023-02-02T05:39:57;96727.22;;;4.06;83.02
41044;BME280;51680;49.806;18.774;2023-02-02T05:42:58;96732.59;;;4.02;82.70
41044;BME280;51680;49.806;18.774;2023-02-02T05:46:00;96739.06;;;4.10;83.15
41044;BME280;51680;49.806;18.774;2023-02-02T05:49:02;96727.53;;;4.17;82.34
41044;BME280;51680;49.806;18.774;2023-02-02T05:52:06;96725.09;;;4.14;82.16
41044;BME280;51680;49.806;18.774;2023-02-02T05:55:13;96720.06;;;4.11;82.81
41044;BME280;51680;49.806;18.774;2023-02-02T05:58:15;96713.41;;;4.07;82.67
41044;BME280;51680;49.806;18.774;2023-02-02T06:01:17;96713.41;;;4.07;82.35
41044;BME280;51680;49.806;18.774;2023-02-02T06:04:20;96719.03;;;3.98;82.68
41044;BME280;51680;49.806;18.774;2023-02-02T06:07:23;96721.28;;;4.04;82.75
41044;BME280;51680;49.806;18.774;2023-02-02T06:10:25;96729.72;;;4.08;82.56
41044;BME280;51680;49.806;18.774;2023-02-02T06:13:27;96730.63;;;4.07;82.64
41044;BME280;51680;49.806;18.774;2023-02-02T06:16:29;96733.16;;;4.08;82.78
41044;BME280;51680;49.806;18.774;2023-02-02T06:19:30;96743.78;;;4.02;82.21
41044;BME280;51680;49.806;18.774;2023-02-02T06:22:33;96746.50;;;3.99;82.70
41044;BME280;51680;49.806;18.774;2023-02-02T06:25:37;96729.97;;;4.03;82.38
41044;BME280;51680;49.806;18.774;2023-02-02T06:28:39;96740.72;;;4.11;82.19
41044;BME280;51680;49.806;18.774;2023-02-02T06:31:40;96734.22;;;4.04;82.92
41044;BME280;51680;49.806;18.774;2023-02-02T06:34:42;96732.97;;;4.11;82.42
41044;BME280;51680;49.806;18.774;2023-02-02T06:37:45;96722.50;;;4.14;82.44
41044;BME280;51680;49.806;18.774;2023-02-02T06:40:48;96737.25;;;4.12;82.34
41044;BME280;51680;49.806;18.774;2023-02-02T06:43:50;96731.00;;;4.16;82.17
41044;BME280;51680;49.806;18.774;2023-02-02T06:46:52;96729.34;;;3.98;82.36
41044;BME280;51680;49.806;18.774;2023-02-02T06:49:54;96728.19;;;4.04;82.18
41044;BME280;51680;49.806;18.774;2023-02-02T06:52:57;96718.56;;;4.07;82.00
41044;BME280;51680;49.806;18.774;2023-02-02T06:56:01;96734.56;;;4.14;81.72
41044;BME280;51680;49.806;18.774;2023-02-02T06:59:02;96748.94;;;4.19;82.21
41044;BME280;51680;49.806;18.774;2023-02-02T07:02:05;96761.41;;;4.28;81.62
41044;BME280;51680;49.806;18.774;2023-02-02T07:05:07;96762.25;;;4.29;81.40
41044;BME280;51680;49.806;18.774;2023-02-02T07:08:10;96755.63;;;4.23;81.99
41044;BME280;51680;49.806;18.774;2023-02-02T07:11:12;96756.94;;;4.15;83.05
41044;BME280;51680;49.806;18.774;2023-02-02T07:14:13;96741.44;;;4.15;82.69
41044;BME280;51680;49.806;18.774;2023-02-02T07:17:15;96759.66;;;4.12;83.37
41044;BME280;51680;49.806;18.774;2023-02-02T07:20:17;96756.53;;;4.05;83.40
41044;BME280;51680;49.806;18.774;2023-02-02T07:23:20;96748.94;;;4.02;83.73
41044;BME280;51680;49.806;18.774;2023-02-02T07:26:22;96764.44;;;4.02;83.03
41044;BME280;51680;49.806;18.774;2023-02-02T07:29:24;96759.97;;;4.06;83.10
41044;BME280;51680;49.806;18.774;2023-02-02T07:32:26;96770.03;;;4.10;82.96
41044;BME280;51680;49.806;18.774;2023-02-02T07:35:27;96770.53;;;4.18;82.54
41044;BME280;51680;49.806;18.774;2023-02-02T07:38:30;96769.28;;;4.25;82.38
41044;BME280;51680;49.806;18.774;2023-02-02T07:41:33;96771.88;;;4.25;81.93
41044;BME280;51680;49.806;18.774;2023-02-02T07:44:36;96761.41;;;4.28;81.80
41044;BME280;51680;49.806;18.774;2023-02-02T07:47:37;96771.34;;;4.36;81.03
41044;BME280;51680;49.806;18.774;2023-02-02T07:50:39;96771.91;;;4.42;81.09
41044;BME280;51680;49.806;18.774;2023-02-02T07:53:43;96764.28;;;4.39;80.53
41044;BME280;51680;49.806;18.774;2023-02-02T07:56:45;96772.63;;;4.44;81.23
41044;BME280;51680;49.806;18.774;2023-02-02T07:59:47;96774.47;;;4.42;80.84
41044;BME280;51680;49.806;18.774;2023-02-02T08:02:51;96780.56;;;4.41;81.60
41044;BME280;51680;49.806;18.774;2023-02-02T08:05:54;96770.06;;;4.44;80.96
41044;BME280;51680;49.806;18.774;2023-02-02T08:08:58;96769.31;;;4.42;81.18
41044;BME280;51680;49.806;18.774;2023-02-02T08:12:00;96766.13;;;4.37;81.15
41044;BME280;51680;49.806;18.774;2023-02-02T08:15:03;96765.72;;;4.28;80.89
41044;BME280;51680;49.806;18.774;2023-02-02T08:18:04;96767.84;;;4.37;81.23
41044;BME280;51680;49.806;18.774;2023-02-02T08:21:07;96771.72;;;4.45;80.96
41044;BME280;51680;49.806;18.774;2023-02-02T08:24:10;96763.38;;;4.40;80.37
41044;BME280;51680;49.806;18.774;2023-02-02T08:27:14;96766.41;;;4.48;80.56
41044;BME280;51680;49.806;18.774;2023-02-02T08:30:16;96768.69;;;4.54;80.43
41044;BME280;51680;49.806;18.774;2023-02-02T08:33:18;96771.97;;;4.58;80.54
41044;BME280;51680;49.806;18.774;2023-02-02T08:36:21;96769.13;;;4.62;79.91
41044;BME280;51680;49.806;18.774;2023-02-02T08:39:43;96774.97;;;4.66;80.11
41044;BME280;51680;49.806;18.774;2023-02-02T08:42:45;96771.59;;;4.65;79.64
41044;BME280;51680;49.806;18.774;2023-02-02T08:45:50;96783.88;;;4.77;79.65
41044;BME280;51680;49.806;18.774;2023-02-02T08:48:52;96785.25;;;4.84;78.83
41044;BME280;51680;49.806;18.774;2023-02-02T08:51:54;96781.56;;;4.88;78.76
41044;BME280;51680;49.806;18.774;2023-02-02T08:54:57;96785.25;;;4.84;78.79
41044;BME280;51680;49.806;18.774;2023-02-02T08:57:59;96780.66;;;4.89;79.08
41044;BME280;51680;49.806;18.774;2023-02-02T09:01:05;96779.88;;;4.87;78.20
41044;BME280;51680;49.806;18.774;2023-02-02T09:04:12;96778.75;;;4.93;78.45
41044;BME280;51680;49.806;18.774;2023-02-02T09:07:15;96787.94;;;4.98;78.76
41044;BME280;51680;49.806;18.774;2023-02-02T09:10:18;96790.94;;;4.91;78.30
41044;BME280;51680;49.806;18.774;2023-02-02T09:13:20;96796.00;;;4.92;78.87
41044;BME280;51680;49.806;18.774;2023-02-02T09:16:23;96792.75;;;4.89;79.00
41044;BME280;51680;49.806;18.774;2023-02-02T09:19:25;96801.09;;;4.94;78.88
41044;BME280;51680;49.806;18.774;2023-02-02T09:22:26;96811.53;;;4.92;78.90
41044;BME280;51680;49.806;18.774;2023-02-02T09:25:29;96811.44;;;4.94;78.78
41044;BME280;51680;49.806;18.774;2023-02-02T09:28:31;96805.47;;;4.93;78.69
41044;BME280;51680;49.806;18.774;2023-02-02T09:31:35;96810.44;;;4.96;78.72
41044;BME280;51680;49.806;18.774;2023-02-02T09:34:37;96807.25;;;5.08;78.49
41044;BME280;51680;49.806;18.774;2023-02-02T09:37:38;96796.47;;;5.00;78.49
41044;BME280;51680;49.806;18.774;2023-02-02T09:40:42;96792.81;;;5.04;79.01
41044;BME280;51680;49.806;18.774;2023-02-02T09:43:50;96804.06;;;5.03;78.29
41044;BME280;51680;49.806;18.774;2023-02-02T09:47:04;96797.31;;;5.01;78.21
41044;BME280;51680;49.806;18.774;2023-02-02T09:50:18;96805.13;;;4.99;78.16
41044;BME280;51680;49.806;18.774;2023-02-02T09:53:36;96809.53;;;4.97;78.21
41044;BME280;51680;49.806;18.774;2023-02-02T09:56:42;96808.84;;;4.94;78.97
41044;BME280;51680;49.806;18.774;2023-02-02T09:59:48;96791.22;;;4.85;78.74
41044;BME280;51680;49.806;18.774;2023-02-02T10:02:54;96796.97;;;4.74;78.66
41044;BME280;51680;49.806;18.774;2023-02-02T10:06:02;96802.88;;;4.76;78.48
41044;BME280;51680;49.806;18.774;2023-02-02T10:09:24;96809.88;;;4.74;78.46
41044;BME280;51680;49.806;18.774;2023-02-02T10:12:35;96820.44;;;4.87;78.28
41044;BME280;51680;49.806;18.774;2023-02-02T10:15:52;96814.88;;;4.94;77.55
41044;BME280;51680;49.806;18.774;2023-02-02T10:19:02;96823.66;;;5.07;78.17
41044;BME280;51680;49.806;18.774;2023-02-02T10:22:11;96817.88;;;5.19;77.89
41044;BME280;51680;49.806;18.774;2023-02-02T10:25:34;96830.41;;;5.27;77.83
41044;BME280;51680;49.806;18.774;2023-02-02T10:28:53;96806.72;;;5.34;76.87
41044;BME280;51680;49.806;18.774;2023-02-02T10:32:11;96831.59;;;5.37;77.13
41044;BME280;51680;49.806;18.774;2023-02-02T10:35:20;96839.75;;;5.29;76.59
41044;BME280;51680;49.806;18.774;2023-02-02T10:38:34;96848.31;;;5.47;77.09
41044;BME280;51680;49.806;18.774;2023-02-02T10:41:40;96840.13;;;5.54;76.43
41044;BME280;51680;49.806;18.774;2023-02-02T10:44:49;96848.34;;;5.62;76.65
41044;BME280;51680;49.806;18.774;2023-02-02T10:48:13;96841.47;;;5.77;76.23
41044;BME280;51680;49.806;18.774;2023-02-02T10:51:22;96842.53;;;5.90;75.59
41044;BME280;51680;49.806;18.774;2023-02-02T10:54:43;96834.34;;;5.97;74.46
41044;BME280;51680;49.806;18.774;2023-02-02T10:57:52;96838.88;;;6.09;75.78
41044;BME280;51680;49.806;18.774;2023-02-02T11:01:00;96847.59;;;6.22;75.01
41044;BME280;51680;49.806;18.774;2023-02-02T11:04:03;96845.84;;;6.38;75.22
41044;BME280;51680;49.806;18.774;2023-02-02T11:07:22;96867.09;;;6.45;74.68
41044;BME280;51680;49.806;18.774;2023-02-02T11:10:44;96861.06;;;6.44;74.92
41044;BME280;51680;49.806;18.774;2023-02-02T11:13:49;96860.91;;;6.32;74.94
41044;BME280;51680;49.806;18.774;2023-02-02T11:17:02;96867.94;;;6.30;74.85
41044;BME280;51680;49.806;18.774;2023-02-02T11:20:21;96867.25;;;6.26;74.04
41044;BME280;51680;49.806;18.774;2023-02-02T11:23:25;96873.44;;;6.24;74.93
41044;BME280;51680;49.806;18.774;2023-02-02T11:26:40;96885.16;;;6.31;75.25
41044;BME280;51680;49.806;18.774;2023-02-02T11:29:45;96879.53;;;6.38;75.88
41044;BME280;51680;49.806;18.774;2023-02-02T11:32:49;96891.50;;;6.41;75.77
41044;BME280;51680;49.806;18.774;2023-02-02T11:35:53;96895.75;;;6.42;75.89
41044;BME280;51680;49.806;18.774;2023-02-02T11:39:14;96905.19;;;6.43;74.58
41044;BME280;51680;49.806;18.774;2023-02-02T11:42:17;96907.13;;;6.39;75.94
41044;BME280;51680;49.806;18.774;2023-02-02T11:45:27;96912.03;;;6.44;75.44
41044;BME280;51680;49.806;18.774;2023-02-02T11:48:34;96904.19;;;6.45;75.38
41044;BME280;51680;49.806;18.774;2023-02-02T11:51:36;96896.41;;;6.45;75.90
41044;BME280;51680;49.806;18.774;2023-02-02T11:54:38;96905.88;;;6.46;75.81
41044;BME280;51680;49.806;18.774;2023-02-02T11:58:08;96909.44;;;6.44;75.03
41044;BME280;51680;49.806;18.774;2023-02-02T12:01:22;96908.38;;;6.48;75.43
41044;BME280;51680;49.806;18.774;2023-02-02T12:04:25;96923.59;;;6.54;75.93
41044;BME280;51680;49.806;18.774;2023-02-02T12:07:29;96913.47;;;6.65;76.02
41044;BME280;51680;49.806;18.774;2023-02-02T12:10:38;96918.22;;;6.72;75.98
41044;BME280;51680;49.806;18.774;2023-02-02T12:13:49;96919.88;;;6.73;75.37
41044;BME280;51680;49.806;18.774;2023-02-02T12:16:59;96921.91;;;6.53;74.53
41044;BME280;51680;49.806;18.774;2023-02-02T12:20:21;96923.59;;;6.54;76.00
41044;BME280;51680;49.806;18.774;2023-02-02T12:23:37;96926.78;;;6.59;75.95
41044;BME280;51680;49.806;18.774;2023-02-02T12:26:49;96931.97;;;6.59;75.93
41044;BME280;51680;49.806;18.774;2023-02-02T12:30:02;96930.53;;;6.53;75.97
41044;BME280;51680;49.806;18.774;2023-02-02T12:33:12;96951.69;;;6.30;75.80
41044;BME280;51680;49.806;18.774;2023-02-02T12:36:34;96962.31;;;6.41;75.96
41044;BME280;51680;49.806;18.774;2023-02-02T12:39:48;96963.16;;;6.57;75.88
41044;BME280;51680;49.806;18.774;2023-02-02T12:43:06;96974.63;;;6.69;75.54
41044;BME280;51680;49.806;18.774;2023-02-02T12:46:22;96977.44;;;6.64;75.08
41044;BME280;51680;49.806;18.774;2023-02-02T12:49:39;96987.00;;;6.48;76.50
41044;BME280;51680;49.806;18.774;2023-02-02T12:52:58;96992.19;;;6.48;76.60
41044;BME280;51680;49.806;18.774;2023-02-02T12:56:16;96991.84;;;6.54;77.16
41044;BME280;51680;49.806;18.774;2023-02-02T12:59:43;96984.47;;;6.62;77.12
41044;BME280;51680;49.806;18.774;2023-02-02T13:03:02;96980.03;;;6.64;76.90
41044;BME280;51680;49.806;18.774;2023-02-02T13:06:33;96991.69;;;6.57;77.15
41044;BME280;51680;49.806;18.774;2023-02-02T13:09:47;96992.41;;;6.59;77.38
41044;BME280;51680;49.806;18.774;2023-02-02T13:12:54;96990.47;;;6.63;76.99
41044;BME280;51680;49.806;18.774;2023-02-02T13:16:01;96984.22;;;6.67;76.65
41044;BME280;51680;49.806;18.774;2023-02-02T13:19:06;96985.38;;;6.77;76.13
41044;BME280;51680;49.806;18.774;2023-02-02T13:22:12;96985.13;;;6.81;75.70
41044;BME280;51680;49.806;18.774;2023-02-02T13:25:20;96980.63;;;6.85;75.31
41044;BME280;51680;49.806;18.774;2023-02-02T13:28:34;96989.31;;;6.99;74.64
41044;BME280;51680;49.806;18.774;2023-02-02T13:31:41;96994.72;;;7.10;74.75
41044;BME280;51680;49.806;18.774;2023-02-02T13:34:48;96998.97;;;7.11;73.66
41044;BME280;51680;49.806;18.774;2023-02-02T13:37:54;96986.94;;;7.10;74.43
41044;BME280;51680;49.806;18.774;2023-02-02T13:41:05;96993.88;;;7.10;73.86
41044;BME280;51680;49.806;18.774;2023-02-02T13:44:13;96990.78;;;7.03;73.22
41044;BME280;51680;49.806;18.774;2023-02-02T13:47:21;96992.72;;;6.84;73.91
41044;BME280;51680;49.806;18.774;2023-02-02T13:50:25;97011.72;;;6.69;73.83
41044;BME280;51680;49.806;18.774;2023-02-02T13:53:43;97021.94;;;6.57;74.66
41044;BME280;51680;49.806;18.774;2023-02-02T13:56:57;97029.22;;;6.50;75.40
41044;BME280;51680;49.806;18.774;2023-02-02T14:00:12;97032.47;;;6.38;75.66
41044;BME280;51680;49.806;18.774;2023-02-02T14:03:27;97046.84;;;6.28;75.93
41044;BME280;51680;49.806;18.774;2023-02-02T14:06:51;97051.13;;;6.12;76.74
41044;BME280;51680;49.806;18.774;2023-02-02T14:09:55;97064.28;;;5.92;77.69
41044;BME280;51680;49.806;18.774;2023-02-02T14:13:08;97068.75;;;5.72;78.39
41044;BME280;51680;49.806;18.774;2023-02-02T14:16:49;97085.41;;;5.49;79.70
41044;BME280;51680;49.806;18.774;2023-02-02T14:19:52;97089.81;;;5.30;79.15
41044;BME280;51680;49.806;18.774;2023-02-02T14:22:55;97094.41;;;5.07;79.74
41044;BME280;51680;49.806;18.774;2023-02-02T14:26:04;97093.22;;;4.95;80.01
41044;BME280;51680;49.806;18.774;2023-02-02T14:29:35;97093.53;;;4.89;81.09
41044;BME280;51680;49.806;18.774;2023-02-02T14:32:41;97097.16;;;4.85;80.60
41044;BME280;51680;49.806;18.774;2023-02-02T14:36:01;97114.63;;;4.80;81.74
41044;BME280;51680;49.806;18.774;2023-02-02T14:39:09;97120.63;;;4.81;81.09
41044;BME280;51680;49.806;18.774;2023-02-02T14:42:28;97132.72;;;4.80;81.97
41044;BME280;51680;49.806;18.774;2023-02-02T14:46:32;97135.59;;;4.74;82.05
41044;BME280;51680;49.806;18.774;2023-02-02T14:49:35;97138.72;;;4.62;82.28
41044;BME280;51680;49.806;18.774;2023-02-02T14:52:37;97142.34;;;4.58;82.26
41044;BME280;51680;49.806;18.774;2023-02-02T14:55:53;97140.88;;;4.53;83.04
41044;BME280;51680;49.806;18.774;2023-02-02T14:58:59;97144.34;;;4.52;82.97
41044;BME280;51680;49.806;18.774;2023-02-02T15:02:13;97150.25;;;4.55;82.53
41044;BME280;51680;49.806;18.774;2023-02-02T15:05:34;97162.38;;;4.53;83.00
41044;BME280;51680;49.806;18.774;2023-02-02T15:08:39;97169.31;;;4.53;82.85
41044;BME280;51680;49.806;18.774;2023-02-02T15:12:14;97178.69;;;4.55;83.39
41044;BME280;51680;49.806;18.774;2023-02-02T15:15:20;97174.53;;;4.51;83.66
41044;BME280;51680;49.806;18.774;2023-02-02T15:18:28;97195.84;;;4.56;83.76
41044;BME280;51680;49.806;18.774;2023-02-02T15:21:36;97197.41;;;4.60;83.49
41044;BME280;51680;49.806;18.774;2023-02-02T15:24:43;97200.00;;;4.60;83.13
41044;BME280;51680;49.806;18.774;2023-02-02T15:27:53;97204.31;;;4.60;83.48
41044;BME280;51680;49.806;18.774;2023-02-02T15:30:59;97205.16;;;4.60;83.03
41044;BME280;51680;49.806;18.774;2023-02-02T15:34:10;97220.50;;;4.63;83.09
41044;BME280;51680;49.806;18.774;2023-02-02T15:37:18;97218.50;;;4.70;82.85
41044;BME280;51680;49.806;18.774;2023-02-02T15:40:23;97226.97;;;4.73;82.99
41044;BME280;51680;49.806;18.774;2023-02-02T15:43:26;97235.34;;;4.78;83.22
41044;BME280;51680;49.806;18.774;2023-02-02T15:46:32;97240.13;;;4.87;82.43
41044;BME280;51680;49.806;18.774;2023-02-02T15:49:36;97250.47;;;4.87;82.91
41044;BME280;51680;49.806;18.774;2023-02-02T15:52:44;97259.13;;;4.86;82.42
41044;BME280;51680;49.806;18.774;2023-02-02T15:55:47;97262.63;;;4.85;82.78
41044;BME280;51680;49.806;18.774;2023-02-02T15:58:50;97271.31;;;4.84;83.05
41044;BME280;51680;49.806;18.774;2023-02-02T16:01:59;97289.31;;;4.86;82.33
41044;BME280;51680;49.806;18.774;2023-02-02T16:05:24;97304.75;;;4.87;82.86
41044;BME280;51680;49.806;18.774;2023-02-02T16:08:28;97305.69;;;4.86;82.62
41044;BME280;51680;49.806;18.774;2023-02-02T16:11:40;97308.25;;;4.86;82.42
41044;BME280;51680;49.806;18.774;2023-02-02T16:14:43;97310.00;;;4.86;82.20
41044;BME280;51680;49.806;18.774;2023-02-02T16:17:56;97317.84;;;4.84;82.81
41044;BME280;51680;49.806;18.774;2023-02-02T16:21:05;97319.63;;;4.82;82.80
41044;BME280;51680;49.806;18.774;2023-02-02T16:24:31;97321.53;;;4.79;82.44
41044;BME280;51680;49.806;18.774;2023-02-02T16:27:34;97324.03;;;4.80;82.68
41044;BME280;51680;49.806;18.774;2023-02-02T16:30:37;97335.41;;;4.76;82.58
41044;BME280;51680;49.806;18.774;2023-02-02T16:33:41;97345.56;;;4.81;82.96